createdAt,value
2023-05-14T00:01:21.857Z,20.75
2023-05-14T00:04:23.880Z,21.09
2023-05-14T00:07:24.841Z,20.76
2023-05-14T00:10:26.872Z,20.66
2023-05-14T00:13:28.060Z,20.80
2023-05-14T00:16:28.939Z,20.84
2023-05-14T00:19:29.864Z,20.80
2023-05-14T00:22:30.879Z,20.88
2023-05-14T00:25:31.853Z,21.02
2023-05-14T00:28:32.847Z,20.98
2023-05-14T00:31:33.852Z,21.14
2023-05-14T00:34:34.831Z,20.64
2023-05-14T00:37:35.819Z,19.99
2023-05-14T00:40:38.848Z,21.11
2023-05-14T00:43:39.856Z,20.99
2023-05-14T00:46:40.909Z,20.49
2023-05-14T00:49:41.828Z,20.98
2023-05-14T00:52:42.863Z,20.83
2023-05-14T00:55:43.833Z,20.96
2023-05-14T00:58:44.830Z,21.25
2023-05-14T01:01:45.835Z,21.03
2023-05-14T01:04:46.856Z,21.13
2023-05-14T01:08:00.838Z,21.21
2023-05-14T01:11:21.880Z,21.00
2023-05-14T01:14:25.862Z,20.84
2023-05-14T01:17:27.919Z,21.44
2023-05-14T01:20:28.813Z,20.88
2023-05-14T01:23:29.835Z,21.19
2023-05-14T01:26:30.870Z,21.51
2023-05-14T01:29:35.820Z,21.00
2023-05-14T01:32:37.059Z,21.35
2023-05-14T01:35:40.883Z,21.29
2023-05-14T01:38:41.836Z,21.25
2023-05-14T01:41:42.824Z,21.28
2023-05-14T01:44:43.816Z,21.26
2023-05-14T01:47:44.825Z,21.43
2023-05-14T01:50:45.850Z,21.20
2023-05-14T01:53:46.811Z,21.10
2023-05-14T01:56:47.834Z,21.42
2023-05-14T01:59:48.820Z,21.59
2023-05-14T02:02:49.884Z,21.26
2023-05-14T02:05:50.935Z,21.20
2023-05-14T02:08:53.825Z,21.36
2023-05-14T02:11:54.817Z,21.63
2023-05-14T02:14:55.809Z,21.30
2023-05-14T02:17:56.840Z,21.02
2023-05-14T02:20:57.837Z,21.38
2023-05-14T02:23:58.879Z,21.52
2023-05-14T02:26:59.831Z,21.47
2023-05-14T02:29:53.832Z,21.54
2023-05-14T02:32:54.948Z,21.47
2023-05-14T02:35:55.846Z,21.54
2023-05-14T02:38:56.949Z,21.64
2023-05-14T02:41:57.809Z,21.40
2023-05-14T02:44:58.834Z,21.06
2023-05-14T02:47:59.865Z,21.57
2023-05-14T02:51:01.841Z,21.58
2023-05-14T02:54:02.851Z,21.60
2023-05-14T02:57:03.813Z,21.61
2023-05-14T03:00:04.844Z,21.44
2023-05-14T03:03:08.156Z,21.50
2023-05-14T03:06:08.794Z,21.48
2023-05-14T03:09:09.829Z,21.78
2023-05-14T03:12:11.811Z,21.84
2023-05-14T03:15:12.849Z,21.63
2023-05-14T03:18:13.838Z,21.92
2023-05-14T03:21:15.807Z,21.69
2023-05-14T03:24:16.845Z,21.77
2023-05-14T03:27:17.812Z,21.91
2023-05-14T03:30:18.844Z,21.75
2023-05-14T03:33:19.835Z,21.81
2023-05-14T03:36:20.838Z,21.70
2023-05-14T03:39:27.837Z,22.05
2023-05-14T03:42:56.806Z,21.57
2023-05-14T03:45:58.825Z,21.62
2023-05-14T03:48:59.915Z,21.76
2023-05-14T03:52:00.819Z,22.08
2023-05-14T03:55:01.828Z,21.97
2023-05-14T03:58:03.842Z,22.02
2023-05-14T04:01:09.806Z,21.96
2023-05-14T04:04:10.937Z,22.03
2023-05-14T04:07:11.812Z,21.63
2023-05-14T04:10:12.864Z,21.91
2023-05-14T04:13:13.847Z,21.39
2023-05-14T04:16:14.876Z,21.45
2023-05-14T04:19:16.897Z,21.32
2023-05-14T04:22:17.854Z,21.70
2023-05-14T04:25:18.825Z,21.33
2023-05-14T04:28:19.797Z,21.46
2023-05-14T04:31:20.867Z,21.22
2023-05-14T04:34:21.812Z,21.18
2023-05-14T04:37:22.809Z,21.31
2023-05-14T04:40:26.544Z,21.41
2023-05-14T04:43:27.796Z,21.44
2023-05-14T04:46:29.027Z,21.04
2023-05-14T04:49:31.129Z,21.15
2023-05-14T04:52:31.816Z,20.92
2023-05-14T04:55:33.037Z,21.14
2023-05-14T04:58:35.774Z,20.83
2023-05-14T05:01:36.880Z,21.11
2023-05-14T05:04:37.778Z,21.06
2023-05-14T05:07:38.822Z,20.99
2023-05-14T05:10:32.794Z,21.01
2023-05-14T05:13:33.897Z,21.21
2023-05-14T05:16:34.922Z,20.62
2023-05-14T05:19:43.855Z,20.72
2023-05-14T05:22:44.783Z,20.75
2023-05-14T05:25:45.790Z,20.65
2023-05-14T05:28:46.781Z,20.54
2023-05-14T05:31:47.881Z,20.13
2023-05-14T05:34:48.772Z,20.39
2023-05-14T05:37:42.826Z,20.47
2023-05-14T05:40:43.786Z,20.91
2023-05-14T05:43:44.779Z,20.70
2023-05-14T05:46:45.848Z,20.48
2023-05-14T05:49:46.836Z,20.82
2023-05-14T05:52:47.807Z,20.84
2023-05-14T05:55:48.800Z,20.48
2023-05-14T05:58:50.821Z,20.49
2023-05-14T06:01:51.814Z,20.59
2023-05-14T06:04:52.900Z,20.82
2023-05-14T06:07:53.832Z,19.88
2023-05-14T06:10:54.771Z,20.17
2023-05-14T06:13:55.788Z,20.53
2023-05-14T06:16:58.849Z,20.29
2023-05-14T06:19:59.763Z,19.88
2023-05-14T06:23:00.748Z,20.22
2023-05-14T06:26:02.793Z,20.69
2023-05-14T06:29:03.790Z,20.50
2023-05-14T06:32:04.842Z,20.64
2023-05-14T06:35:05.756Z,20.88
2023-05-14T06:38:06.767Z,21.15
2023-05-14T06:41:07.758Z,20.78
2023-05-14T06:44:08.810Z,20.87
2023-05-14T06:47:09.781Z,21.13
2023-05-14T06:50:11.078Z,21.12
2023-05-14T06:53:11.813Z,20.47
2023-05-14T06:56:12.795Z,20.59
2023-05-14T06:59:13.761Z,20.64
2023-05-14T07:02:14.743Z,19.94
2023-05-14T07:05:15.767Z,20.05
2023-05-14T07:08:16.746Z,19.94
2023-05-14T07:11:17.835Z,19.98
2023-05-14T07:14:18.756Z,20.30
2023-05-14T07:17:19.850Z,20.04
2023-05-14T07:20:20.755Z,19.48
2023-05-14T07:23:46.767Z,19.84
2023-05-14T07:26:47.772Z,20.11
2023-05-14T07:29:48.767Z,19.96
2023-05-14T07:32:49.894Z,20.31
2023-05-14T07:35:50.760Z,20.15
2023-05-14T07:38:51.747Z,20.35
2023-05-14T07:41:52.776Z,20.67
2023-05-14T07:44:53.744Z,20.92
2023-05-14T07:47:58.841Z,21.02
2023-05-14T07:50:59.782Z,19.85
2023-05-14T07:54:01.997Z,20.07
2023-05-14T07:57:03.941Z,20.40
2023-05-14T08:00:05.983Z,19.57
2023-05-14T08:03:07.880Z,19.81
2023-05-14T08:06:10.719Z,19.16
2023-05-14T08:09:27.705Z,19.17
2023-05-14T08:12:29.010Z,19.27
2023-05-14T08:15:30.276Z,19.58
2023-05-14T08:18:49.325Z,19.09
2023-05-14T08:21:36.619Z,19.38
2023-05-14T08:24:37.818Z,19.42
2023-05-14T08:27:39.214Z,19.22
2023-05-14T08:30:40.797Z,19.36
2023-05-14T08:33:41.834Z,19.52
2023-05-14T08:36:42.761Z,19.39
2023-05-14T08:39:36.773Z,19.43
2023-05-14T08:42:37.757Z,19.31
2023-05-14T08:45:35.882Z,19.55
2023-05-14T08:48:29.894Z,19.22
2023-05-14T08:51:30.740Z,19.29
2023-05-14T08:54:32.759Z,19.54
2023-05-14T08:57:34.721Z,19.28
2023-05-14T09:00:35.743Z,19.25
2023-05-14T09:03:36.800Z,20.13
2023-05-14T09:06:37.732Z,20.04
2023-05-14T09:09:38.727Z,20.13
2023-05-14T09:12:39.798Z,20.25
2023-05-14T09:15:41.802Z,19.93
2023-05-14T09:18:35.799Z,19.15
2023-05-14T09:21:36.791Z,19.98
2023-05-14T09:24:38.744Z,19.90
2023-05-14T09:27:39.765Z,20.19
2023-05-14T09:30:41.711Z,20.58
2023-05-14T09:33:43.765Z,20.51
2023-05-14T09:36:44.729Z,20.56
2023-05-14T09:39:45.769Z,20.27
2023-05-14T09:42:46.780Z,19.81
2023-05-14T09:45:48.733Z,20.44
2023-05-14T09:48:49.735Z,20.28
2023-05-14T09:51:50.770Z,20.33
2023-05-14T09:54:51.717Z,20.20
2023-05-14T09:57:52.720Z,20.18
2023-05-14T10:00:53.776Z,20.30
2023-05-14T10:03:54.748Z,19.98
2023-05-14T10:06:57.943Z,20.09
2023-05-14T10:09:59.839Z,19.88
2023-05-14T10:13:05.762Z,19.50
2023-05-14T10:16:19.759Z,20.44
2023-05-14T10:19:24.760Z,19.24
2023-05-14T10:22:25.736Z,20.09
2023-05-14T10:25:26.750Z,19.41
2023-05-14T10:28:27.722Z,18.92
2023-05-14T10:31:28.790Z,19.58
2023-05-14T10:34:41.697Z,18.87
2023-05-14T10:37:43.739Z,19.01
2023-05-14T10:40:44.768Z,19.13
2023-05-14T10:43:49.729Z,20.39
2023-05-14T10:46:43.892Z,19.38
2023-05-14T10:49:43.332Z,19.29
2023-05-14T10:52:44.753Z,19.21
2023-05-14T10:55:45.715Z,19.64
2023-05-14T10:58:48.755Z,19.50
2023-05-14T11:01:49.789Z,19.13
2023-05-14T11:04:50.755Z,18.80
2023-05-14T11:07:52.713Z,18.57
2023-05-14T11:10:54.723Z,19.06
2023-05-14T11:13:55.720Z,18.44
2023-05-14T11:16:56.807Z,18.30
2023-05-14T11:19:57.761Z,18.32
2023-05-14T11:22:59.734Z,18.63
2023-05-14T11:26:00.816Z,18.39
2023-05-14T11:29:01.705Z,18.14
2023-05-14T11:32:03.863Z,17.83
2023-05-14T11:35:04.699Z,18.14
2023-05-14T11:38:07.958Z,18.18
2023-05-14T11:41:11.701Z,18.65
2023-05-14T11:44:12.828Z,19.13
2023-05-14T11:47:13.701Z,18.83
2023-05-14T11:50:14.728Z,18.07
2023-05-14T11:53:15.740Z,18.00
2023-05-14T11:56:16.730Z,18.02
2023-05-14T11:59:17.729Z,18.33
2023-05-14T12:02:18.801Z,18.80
2023-05-14T12:05:19.718Z,17.89
2023-05-14T12:08:40.726Z,17.49
2023-05-14T12:11:44.706Z,18.23
2023-05-14T12:14:50.738Z,17.85
2023-05-14T12:17:51.849Z,17.89
2023-05-14T12:20:52.712Z,17.77
2023-05-14T12:23:53.720Z,18.19
2023-05-14T12:26:58.710Z,18.89
2023-05-14T12:30:09.281Z,19.11
2023-05-14T12:33:13.741Z,19.14
2023-05-14T12:39:20.702Z,19.09
2023-05-14T12:42:21.727Z,19.04
2023-05-14T12:45:22.948Z,18.91
2023-05-14T12:48:23.708Z,19.24
2023-05-14T12:51:24.709Z,18.92
2023-05-14T12:54:25.813Z,19.26
2023-05-14T12:57:26.693Z,18.75
2023-05-14T13:00:20.724Z,19.61
2023-05-14T13:03:21.771Z,19.80
2023-05-14T13:06:31.686Z,19.33
2023-05-14T13:09:34.680Z,19.35
2023-05-14T13:12:36.750Z,19.49
2023-05-14T13:15:38.772Z,19.91
2023-05-14T13:18:39.702Z,19.72
2023-05-14T13:21:40.717Z,19.59
2023-05-14T13:24:41.786Z,19.69
2023-05-14T13:27:44.717Z,19.51
2023-05-14T13:30:46.068Z,19.29
2023-05-14T13:33:46.691Z,19.19
2023-05-14T13:36:47.789Z,19.12
2023-05-14T13:39:51.248Z,19.27
2023-05-14T13:42:52.740Z,18.11
2023-05-14T13:45:53.769Z,19.00
2023-05-14T13:48:54.750Z,18.37
2023-05-14T13:51:55.693Z,18.88
2023-05-14T13:54:56.722Z,18.54
2023-05-14T13:57:57.678Z,18.89
2023-05-14T14:00:58.738Z,18.92
2023-05-14T14:03:59.725Z,18.61
2023-05-14T14:07:00.749Z,18.49
2023-05-14T14:10:01.715Z,18.45
2023-05-14T14:13:02.741Z,18.28
2023-05-14T14:16:03.838Z,17.81
2023-05-14T14:19:04.833Z,17.64
2023-05-14T14:22:05.673Z,17.88
2023-05-14T14:25:06.936Z,18.31
2023-05-14T14:28:07.727Z,18.57
2023-05-14T14:31:08.766Z,17.92
2023-05-14T14:34:09.699Z,18.75
2023-05-14T14:37:10.724Z,19.05
2023-05-14T14:40:13.684Z,19.05
2023-05-14T14:43:14.729Z,18.88
2023-05-14T14:46:16.748Z,18.86
2023-05-14T14:49:17.729Z,19.00
2023-05-14T14:52:18.715Z,18.79
2023-05-14T14:55:19.742Z,19.01
2023-05-14T14:58:20.681Z,19.17
2023-05-14T15:01:21.798Z,19.16
2023-05-14T15:04:22.748Z,19.11
2023-05-14T15:07:23.733Z,19.21
2023-05-14T15:10:24.710Z,19.23
2023-05-14T15:13:25.794Z,19.57
2023-05-14T15:16:26.722Z,19.60
2023-05-14T15:19:27.735Z,19.47
2023-05-14T15:22:28.683Z,19.67
2023-05-14T15:25:29.920Z,19.84
2023-05-14T15:28:30.678Z,19.70
2023-05-14T15:31:31.739Z,19.80
2023-05-14T15:34:32.706Z,19.75
2023-05-14T15:37:33.739Z,19.88
2023-05-14T15:40:34.685Z,19.50
2023-05-14T15:43:35.755Z,19.89
2023-05-14T15:46:36.784Z,19.79
2023-05-14T15:49:37.766Z,19.96
2023-05-14T15:52:38.713Z,20.41
2023-05-14T15:55:39.766Z,20.35
2023-05-14T15:58:40.691Z,20.01
2023-05-14T16:01:41.758Z,20.22
2023-05-14T16:04:42.691Z,19.93
2023-05-14T16:07:43.732Z,20.16
2023-05-14T16:10:44.702Z,20.18
2023-05-14T16:13:46.717Z,19.95
2023-05-14T16:16:47.768Z,19.22
2023-05-14T16:19:48.756Z,19.48
2023-05-14T16:22:51.701Z,19.13
2023-05-14T16:25:52.869Z,19.13
2023-05-14T16:28:53.688Z,19.00
2023-05-14T16:31:54.826Z,19.01
2023-05-14T16:34:58.668Z,19.44
2023-05-14T16:37:59.742Z,19.61
2023-05-14T16:41:00.662Z,19.80
2023-05-14T16:44:01.689Z,20.17
2023-05-14T16:47:02.654Z,19.76
2023-05-14T16:50:03.720Z,20.34
2023-05-14T16:53:04.644Z,20.21
2023-05-14T16:56:05.715Z,20.33
2023-05-14T16:59:06.635Z,20.31
2023-05-14T17:02:07.710Z,20.44
2023-05-14T17:05:08.680Z,20.53
2023-05-14T17:08:09.711Z,20.37
2023-05-14T17:11:12.676Z,20.30
2023-05-14T17:14:13.764Z,20.79
2023-05-14T17:17:14.661Z,20.70
2023-05-14T17:20:16.902Z,20.62
2023-05-14T17:23:17.652Z,20.84
2023-05-14T17:26:18.862Z,20.91
2023-05-14T17:29:19.668Z,20.67
2023-05-14T17:32:20.717Z,20.94
2023-05-14T17:35:21.827Z,20.93
2023-05-14T17:38:22.678Z,21.19
2023-05-14T17:41:23.715Z,20.86
2023-05-14T17:44:24.701Z,20.82
2023-05-14T17:47:26.747Z,20.67
2023-05-14T17:50:27.688Z,21.10
2023-05-14T17:53:28.676Z,20.51
2023-05-14T17:56:29.708Z,20.73
2023-05-14T17:59:30.642Z,21.15
2023-05-14T18:02:31.747Z,21.00
2023-05-14T18:05:32.664Z,20.83
2023-05-14T18:08:33.712Z,20.95
2023-05-14T18:11:39.652Z,21.10
2023-05-14T18:14:40.714Z,20.99
2023-05-14T18:17:41.656Z,20.76
2023-05-14T18:20:42.735Z,20.80
2023-05-14T18:23:43.668Z,20.54
2023-05-14T18:26:44.784Z,20.87
2023-05-14T18:29:45.677Z,20.71
2023-05-14T18:32:46.751Z,20.77
2023-05-14T18:35:47.664Z,21.06
2023-05-14T18:38:48.683Z,20.35
2023-05-14T18:41:49.690Z,20.15
2023-05-14T18:44:51.704Z,20.12
2023-05-14T18:47:54.790Z,20.47
2023-05-14T18:50:55.692Z,20.58
2023-05-14T18:53:56.660Z,20.63
2023-05-14T18:56:57.711Z,20.98
2023-05-14T18:59:58.676Z,20.86
2023-05-14T19:02:59.769Z,20.76
2023-05-14T19:06:00.654Z,20.87
2023-05-14T19:09:01.669Z,20.72
2023-05-14T19:12:02.654Z,20.85
2023-05-14T19:15:03.688Z,20.60
2023-05-14T19:18:04.825Z,20.82
2023-05-14T19:21:05.703Z,20.64
2023-05-14T19:24:06.666Z,20.58
2023-05-14T19:27:07.889Z,20.37
2023-05-14T19:30:08.651Z,20.53
2023-05-14T19:33:09.787Z,20.38
2023-05-14T19:36:10.667Z,20.61
2023-05-14T19:39:11.706Z,20.29
2023-05-14T19:42:12.627Z,20.25
2023-05-14T19:45:13.711Z,20.16
2023-05-14T19:48:14.670Z,20.35
2023-05-14T19:51:15.702Z,20.33
2023-05-14T19:54:16.646Z,20.01
2023-05-14T19:57:17.680Z,20.20
2023-05-14T20:00:19.627Z,20.18
2023-05-14T20:03:20.722Z,20.08
2023-05-14T20:06:21.643Z,19.84
2023-05-14T20:09:22.659Z,19.87
2023-05-14T20:12:24.647Z,19.90
2023-05-14T20:15:25.671Z,19.96
2023-05-14T20:18:26.670Z,19.96
2023-05-14T20:21:27.666Z,19.96
2023-05-14T20:24:28.659Z,20.28
2023-05-14T20:27:29.859Z,19.92
2023-05-14T20:30:30.687Z,19.76
2023-05-14T20:33:31.694Z,19.88
2023-05-14T20:36:32.633Z,20.04
2023-05-14T20:39:33.663Z,19.69
2023-05-14T20:42:34.646Z,19.72
2023-05-14T20:45:35.619Z,19.50
2023-05-14T20:48:36.618Z,19.73
2023-05-14T20:51:37.673Z,19.87
2023-05-14T20:54:38.632Z,20.10
2023-05-14T20:57:39.688Z,20.05
2023-05-14T21:00:40.604Z,19.85
2023-05-14T21:03:41.831Z,20.18
2023-05-14T21:06:42.650Z,19.78
2023-05-14T21:09:43.679Z,20.01
2023-05-14T21:12:44.989Z,20.32
2023-05-14T21:15:45.678Z,19.77
2023-05-14T21:18:46.648Z,20.22
2023-05-14T21:21:47.689Z,20.21
2023-05-14T21:24:48.632Z,20.01
2023-05-14T21:27:49.805Z,20.14
2023-05-14T21:30:50.629Z,20.28
2023-05-14T21:33:51.663Z,20.07
2023-05-14T21:36:52.635Z,20.07
2023-05-14T21:39:53.658Z,20.02
2023-05-14T21:42:54.640Z,20.37
2023-05-14T21:45:56.643Z,20.24
2023-05-14T21:48:57.691Z,20.21
2023-05-14T21:52:00.641Z,20.12
2023-05-14T21:55:01.592Z,20.22
2023-05-14T21:58:02.647Z,20.33
2023-05-14T22:01:03.648Z,20.21
2023-05-14T22:04:04.699Z,20.43
2023-05-14T22:07:05.592Z,20.25
2023-05-14T22:10:06.659Z,20.04
2023-05-14T22:13:07.596Z,20.05
2023-05-14T22:16:12.811Z,20.25
2023-05-14T22:19:14.674Z,20.34
2023-05-14T22:22:15.672Z,20.55
2023-05-14T22:25:16.601Z,20.22
2023-05-14T22:28:17.941Z,20.36
2023-05-14T22:31:18.648Z,20.21
2023-05-14T22:34:19.766Z,20.11
2023-05-14T22:37:20.640Z,20.05
2023-05-14T22:40:21.652Z,20.22
2023-05-14T22:43:22.632Z,20.11
2023-05-14T22:46:23.689Z,19.73
2023-05-14T22:49:24.614Z,20.16
2023-05-14T22:52:27.664Z,20.36
2023-05-14T22:55:28.700Z,19.60
2023-05-14T22:58:29.644Z,20.11
2023-05-14T23:01:30.629Z,20.17
2023-05-14T23:04:31.703Z,19.55
2023-05-14T23:07:32.626Z,20.43
2023-05-14T23:10:33.636Z,19.98
2023-05-14T23:13:34.621Z,19.96
2023-05-14T23:16:35.646Z,20.19
2023-05-14T23:19:36.655Z,20.39
2023-05-14T23:22:37.661Z,19.98
2023-05-14T23:25:38.615Z,20.06
2023-05-14T23:28:39.795Z,20.36
2023-05-14T23:31:40.645Z,20.13
2023-05-14T23:34:41.649Z,20.12
2023-05-14T23:37:48.593Z,20.54
2023-05-14T23:40:49.656Z,20.51
2023-05-14T23:43:50.575Z,20.35
2023-05-14T23:46:51.642Z,20.39
2023-05-14T23:49:52.626Z,20.58
2023-05-14T23:52:53.658Z,20.48
2023-05-14T23:55:54.636Z,20.33
2023-05-14T23:58:55.658Z,20.26
